Skip to main content

Odemira, S.Teotónio

ID 1210577 · 37.5471, -8.7290 map

Latest reading · 2026-05-09 19:00 (Europe/Lisbon)

Temperature
17.5 °C
Humidity
71 %
Pressure
Precipitation
0.0 mm
Radiation
1,123 W/m²
Wind speed
24.8 km/h
Wind direction
SW · South-west

24-hour history

Time (Europe/Lisbon) Temp Humidity Pressure Rain Wind Dir
2026-05-09 19:00 17.5 °C 71 % 0.0 mm 24.8 km/h SW
2026-05-09 18:00 17.7 °C 72 % 0.0 mm 28.8 km/h SW
2026-05-09 17:00 19.1 °C 67 % 0.0 mm 33.8 km/h SW
2026-05-09 16:00 19.4 °C 69 % 0.0 mm 30.6 km/h SW
2026-05-09 15:00 19.4 °C 69 % 0.0 mm 33.5 km/h SW
2026-05-09 14:00 19.4 °C 65 % 0.0 mm 33.5 km/h SW
2026-05-09 13:00 18.7 °C 66 % 0.0 mm 29.9 km/h SW
2026-05-09 12:00 17.4 °C 74 % 0.0 mm 28.1 km/h SW
2026-05-09 11:00 16.6 °C 80 % 0.0 mm 31.0 km/h SW
2026-05-09 10:00 15.5 °C 90 % 0.0 mm 20.9 km/h SW
2026-05-09 09:00 14.3 °C 98 % 0.0 mm 18.4 km/h S
2026-05-09 08:00 12.8 °C 99 % 0.5 mm 1.1 km/h SE
2026-05-09 07:00 12.4 °C 98 % 0.1 mm 0.7 km/h SE
2026-05-09 06:00 12.1 °C 98 % 4.5 mm 11.2 km/h SW
2026-05-09 05:00 12.4 °C 97 % 1.3 mm 1.8 km/h W
2026-05-09 04:00 12.8 °C 94 % 0.0 mm 5.8 km/h E
2026-05-09 03:00 13.3 °C 93 % 0.0 mm 7.9 km/h SE
2026-05-09 02:00 13.0 °C 91 % 0.0 mm 6.1 km/h E
2026-05-09 01:00 13.7 °C 85 % 0.0 mm 11.5 km/h SE
2026-05-09 00:00 13.0 °C 85 % 0.0 mm 12.2 km/h SE
2026-05-08 23:00 12.6 °C 88 % 0.0 mm 12.2 km/h SE
2026-05-08 22:00 12.5 °C 92 % 2.1 mm 13.7 km/h SE
2026-05-08 21:00 14.2 °C 89 % 4.2 mm 14.4 km/h SE
2026-05-08 20:00 16.3 °C 72 % 0.0 mm 14.4 km/h SE